Terminal Aerodrome Forecast
Issued by NWS Bismarck, ND

Home | Current Version | Previous Version | Text Only | Print | Product List | Glossary On
Versions: 1 2 3 4 5 6 7 8 9 10 11 12 13 14 15 16 17 18 19 20 21 22 23 24 25 26 27 28 29
000
FTUS43 KBIS 301125
TAFISN
TAF
KISN 301125Z 3012/0112 04006KT 2SM -SHRA FU BKN070 OVC100
     FM301600 14010KT P6SM VCSH BKN050 OVC080
     FM302300 10008KT P6SM -SHRA VCTS BKN050 OVC080CB
     FM010600 08009KT P6SM VCSH BKN070=

USA.gov is the U.S. government's official web portal to all federal, state and local government web resources and services.